sensor_id;sensor_type;location;lat;lon;timestamp;temperature;humidity
11597;DHT22;5854;48.072;16.286;2023-12-22T00:00:04;7.20;86.50
11597;DHT22;5854;48.072;16.286;2023-12-22T00:02:33;7.30;87.00
11597;DHT22;5854;48.072;16.286;2023-12-22T00:05:00;7.20;84.40
11597;DHT22;5854;48.072;16.286;2023-12-22T00:07:28;7.30;89.40
11597;DHT22;5854;48.072;16.286;2023-12-22T00:09:57;7.20;81.00
11597;DHT22;5854;48.072;16.286;2023-12-22T00:12:24;7.20;88.90
11597;DHT22;5854;48.072;16.286;2023-12-22T00:14:51;7.00;73.60
11597;DHT22;5854;48.072;16.286;2023-12-22T00:17:18;7.10;86.50
11597;DHT22;5854;48.072;16.286;2023-12-22T00:19:46;7.00;69.50
11597;DHT22;5854;48.072;16.286;2023-12-22T00:22:13;7.30;86.00
11597;DHT22;5854;48.072;16.286;2023-12-22T00:24:40;7.20;76.50
11597;DHT22;5854;48.072;16.286;2023-12-22T00:27:09;7.20;83.40
11597;DHT22;5854;48.072;16.286;2023-12-22T00:29:36;7.20;85.10
11597;DHT22;5854;48.072;16.286;2023-12-22T00:32:04;7.10;75.80
11597;DHT22;5854;48.072;16.286;2023-12-22T00:34:32;7.20;84.50
11597;DHT22;5854;48.072;16.286;2023-12-22T00:36:59;7.30;89.10
11597;DHT22;5854;48.072;16.286;2023-12-22T00:39:27;7.20;80.20
11597;DHT22;5854;48.072;16.286;2023-12-22T00:41:54;7.20;85.10
11597;DHT22;5854;48.072;16.286;2023-12-22T00:44:22;7.30;88.80
11597;DHT22;5854;48.072;16.286;2023-12-22T00:46:53;7.00;80.30
11597;DHT22;5854;48.072;16.286;2023-12-22T00:49:21;6.80;74.30
11597;DHT22;5854;48.072;16.286;2023-12-22T00:51:48;7.00;88.30
11597;DHT22;5854;48.072;16.286;2023-12-22T00:54:15;6.90;81.50
11597;DHT22;5854;48.072;16.286;2023-12-22T00:56:43;6.60;71.50
11597;DHT22;5854;48.072;16.286;2023-12-22T00:59:10;6.80;75.20
11597;DHT22;5854;48.072;16.286;2023-12-22T01:01:38;6.90;88.30
11597;DHT22;5854;48.072;16.286;2023-12-22T01:04:06;6.90;80.80
11597;DHT22;5854;48.072;16.286;2023-12-22T01:06:37;6.90;84.20
11597;DHT22;5854;48.072;16.286;2023-12-22T01:09:05;6.90;84.70
11597;DHT22;5854;48.072;16.286;2023-12-22T01:11:32;6.90;75.10
11597;DHT22;5854;48.072;16.286;2023-12-22T01:13:59;6.80;74.60
11597;DHT22;5854;48.072;16.286;2023-12-22T01:16:27;6.80;83.90
11597;DHT22;5854;48.072;16.286;2023-12-22T01:18:55;6.80;75.90
11597;DHT22;5854;48.072;16.286;2023-12-22T01:21:23;6.80;72.80
11597;DHT22;5854;48.072;16.286;2023-12-22T01:23:50;6.80;78.90
11597;DHT22;5854;48.072;16.286;2023-12-22T01:26:17;6.90;85.10
11597;DHT22;5854;48.072;16.286;2023-12-22T01:28:44;7.00;86.80
11597;DHT22;5854;48.072;16.286;2023-12-22T01:31:12;7.00;84.10
11597;DHT22;5854;48.072;16.286;2023-12-22T01:33:39;7.00;70.80
11597;DHT22;5854;48.072;16.286;2023-12-22T01:36:08;7.10;81.40
11597;DHT22;5854;48.072;16.286;2023-12-22T01:38:35;7.10;75.50
11597;DHT22;5854;48.072;16.286;2023-12-22T01:41:02;7.00;74.20
11597;DHT22;5854;48.072;16.286;2023-12-22T01:43:30;7.00;77.20
11597;DHT22;5854;48.072;16.286;2023-12-22T01:45:58;6.90;62.60
11597;DHT22;5854;48.072;16.286;2023-12-22T01:48:27;7.00;66.70
11597;DHT22;5854;48.072;16.286;2023-12-22T01:50:56;7.00;71.50
11597;DHT22;5854;48.072;16.286;2023-12-22T01:53:26;7.00;78.90
11597;DHT22;5854;48.072;16.286;2023-12-22T01:55:55;7.10;79.40
11597;DHT22;5854;48.072;16.286;2023-12-22T01:58:23;7.00;69.90
11597;DHT22;5854;48.072;16.286;2023-12-22T02:00:52;7.10;80.20
11597;DHT22;5854;48.072;16.286;2023-12-22T02:03:21;7.00;74.70
11597;DHT22;5854;48.072;16.286;2023-12-22T02:05:48;6.80;66.30
11597;DHT22;5854;48.072;16.286;2023-12-22T02:08:17;6.80;71.70
11597;DHT22;5854;48.072;16.286;2023-12-22T02:10:48;6.90;73.90
11597;DHT22;5854;48.072;16.286;2023-12-22T02:13:15;6.90;74.50
11597;DHT22;5854;48.072;16.286;2023-12-22T02:15:43;6.90;71.50
11597;DHT22;5854;48.072;16.286;2023-12-22T02:18:14;6.90;71.30
11597;DHT22;5854;48.072;16.286;2023-12-22T02:20:45;6.90;73.30
11597;DHT22;5854;48.072;16.286;2023-12-22T02:23:14;7.00;78.50
11597;DHT22;5854;48.072;16.286;2023-12-22T02:25:41;7.00;78.20
11597;DHT22;5854;48.072;16.286;2023-12-22T02:28:10;7.00;76.00
11597;DHT22;5854;48.072;16.286;2023-12-22T02:30:46;6.90;59.90
11597;DHT22;5854;48.072;16.286;2023-12-22T02:33:22;6.80;68.50
11597;DHT22;5854;48.072;16.286;2023-12-22T02:35:51;7.00;73.80
11597;DHT22;5854;48.072;16.286;2023-12-22T02:38:20;6.80;63.30
11597;DHT22;5854;48.072;16.286;2023-12-22T02:40:48;6.80;68.10
11597;DHT22;5854;48.072;16.286;2023-12-22T02:43:15;6.90;73.80
11597;DHT22;5854;48.072;16.286;2023-12-22T02:45:42;6.80;73.70
11597;DHT22;5854;48.072;16.286;2023-12-22T02:48:09;6.80;73.90
11597;DHT22;5854;48.072;16.286;2023-12-22T02:50:36;6.70;74.10
11597;DHT22;5854;48.072;16.286;2023-12-22T02:53:04;6.70;61.70
11597;DHT22;5854;48.072;16.286;2023-12-22T02:55:32;6.60;70.70
11597;DHT22;5854;48.072;16.286;2023-12-22T02:58:00;6.50;66.50
11597;DHT22;5854;48.072;16.286;2023-12-22T03:00:27;6.60;80.20
11597;DHT22;5854;48.072;16.286;2023-12-22T03:02:54;6.60;76.10
11597;DHT22;5854;48.072;16.286;2023-12-22T03:05:21;6.60;85.80
11597;DHT22;5854;48.072;16.286;2023-12-22T03:07:49;6.50;67.90
11597;DHT22;5854;48.072;16.286;2023-12-22T03:10:16;6.60;84.80
11597;DHT22;5854;48.072;16.286;2023-12-22T03:12:44;6.50;72.70
11597;DHT22;5854;48.072;16.286;2023-12-22T03:15:12;6.60;76.10
11597;DHT22;5854;48.072;16.286;2023-12-22T03:17:39;6.50;74.50
11597;DHT22;5854;48.072;16.286;2023-12-22T03:20:06;6.60;78.30
11597;DHT22;5854;48.072;16.286;2023-12-22T03:22:34;6.50;76.90
11597;DHT22;5854;48.072;16.286;2023-12-22T03:25:02;6.30;67.20
11597;DHT22;5854;48.072;16.286;2023-12-22T03:27:29;6.20;65.40
11597;DHT22;5854;48.072;16.286;2023-12-22T03:29:58;6.30;79.50
11597;DHT22;5854;48.072;16.286;2023-12-22T03:32:25;6.30;71.10
11597;DHT22;5854;48.072;16.286;2023-12-22T03:34:52;6.30;76.70
11597;DHT22;5854;48.072;16.286;2023-12-22T03:37:19;6.40;79.40
11597;DHT22;5854;48.072;16.286;2023-12-22T03:39:47;6.30;77.60
11597;DHT22;5854;48.072;16.286;2023-12-22T03:42:14;6.20;72.70
11597;DHT22;5854;48.072;16.286;2023-12-22T03:44:41;6.30;87.00
11597;DHT22;5854;48.072;16.286;2023-12-22T03:47:10;6.30;82.10
11597;DHT22;5854;48.072;16.286;2023-12-22T03:49:37;6.10;85.80
11597;DHT22;5854;48.072;16.286;2023-12-22T03:52:05;5.90;85.40
11597;DHT22;5854;48.072;16.286;2023-12-22T03:54:32;5.80;84.30
11597;DHT22;5854;48.072;16.286;2023-12-22T03:56:59;5.50;82.70
11597;DHT22;5854;48.072;16.286;2023-12-22T03:59:26;5.40;85.30
11597;DHT22;5854;48.072;16.286;2023-12-22T04:01:53;5.80;91.70
11597;DHT22;5854;48.072;16.286;2023-12-22T04:04:24;5.70;83.00
11597;DHT22;5854;48.072;16.286;2023-12-22T04:06:53;5.70;85.70
11597;DHT22;5854;48.072;16.286;2023-12-22T04:09:20;5.60;84.50
11597;DHT22;5854;48.072;16.286;2023-12-22T04:11:48;5.80;91.20
11597;DHT22;5854;48.072;16.286;2023-12-22T04:14:15;6.00;93.50
11597;DHT22;5854;48.072;16.286;2023-12-22T04:16:44;6.00;91.40
11597;DHT22;5854;48.072;16.286;2023-12-22T04:19:11;5.90;82.40
11597;DHT22;5854;48.072;16.286;2023-12-22T04:21:39;5.70;77.50
11597;DHT22;5854;48.072;16.286;2023-12-22T04:24:07;5.70;84.00
11597;DHT22;5854;48.072;16.286;2023-12-22T04:26:34;5.60;78.40
11597;DHT22;5854;48.072;16.286;2023-12-22T04:29:01;5.70;82.80
11597;DHT22;5854;48.072;16.286;2023-12-22T04:31:29;5.70;81.40
11597;DHT22;5854;48.072;16.286;2023-12-22T04:33:56;5.60;79.20
11597;DHT22;5854;48.072;16.286;2023-12-22T04:36:23;5.70;77.40
11597;DHT22;5854;48.072;16.286;2023-12-22T04:38:52;5.60;71.90
11597;DHT22;5854;48.072;16.286;2023-12-22T04:41:19;5.70;82.00
11597;DHT22;5854;48.072;16.286;2023-12-22T04:43:46;5.80;85.20
11597;DHT22;5854;48.072;16.286;2023-12-22T04:46:14;5.80;79.80
11597;DHT22;5854;48.072;16.286;2023-12-22T04:48:41;6.00;82.50
11597;DHT22;5854;48.072;16.286;2023-12-22T04:51:08;5.90;80.40
11597;DHT22;5854;48.072;16.286;2023-12-22T04:53:35;5.90;74.30
11597;DHT22;5854;48.072;16.286;2023-12-22T04:56:05;5.80;77.50
11597;DHT22;5854;48.072;16.286;2023-12-22T04:58:32;5.80;70.90
11597;DHT22;5854;48.072;16.286;2023-12-22T05:00:59;5.80;66.20
11597;DHT22;5854;48.072;16.286;2023-12-22T05:03:27;5.90;76.40
11597;DHT22;5854;48.072;16.286;2023-12-22T05:05:54;5.90;68.20
11597;DHT22;5854;48.072;16.286;2023-12-22T05:08:21;5.80;67.50
11597;DHT22;5854;48.072;16.286;2023-12-22T05:10:48;6.00;81.40
11597;DHT22;5854;48.072;16.286;2023-12-22T05:13:17;6.00;74.80
11597;DHT22;5854;48.072;16.286;2023-12-22T05:15:44;5.90;70.90
11597;DHT22;5854;48.072;16.286;2023-12-22T05:18:12;6.00;76.80
11597;DHT22;5854;48.072;16.286;2023-12-22T05:20:39;5.90;62.30
11597;DHT22;5854;48.072;16.286;2023-12-22T05:23:06;5.90;67.30
11597;DHT22;5854;48.072;16.286;2023-12-22T05:25:33;5.90;67.50
11597;DHT22;5854;48.072;16.286;2023-12-22T05:28:01;5.80;71.60
11597;DHT22;5854;48.072;16.286;2023-12-22T05:30:29;5.90;76.60
11597;DHT22;5854;48.072;16.286;2023-12-22T05:32:56;5.90;75.70
11597;DHT22;5854;48.072;16.286;2023-12-22T05:35:24;5.80;70.90
11597;DHT22;5854;48.072;16.286;2023-12-22T05:37:51;5.80;74.30
11597;DHT22;5854;48.072;16.286;2023-12-22T05:40:18;5.80;67.30
11597;DHT22;5854;48.072;16.286;2023-12-22T05:42:46;5.80;68.20
11597;DHT22;5854;48.072;16.286;2023-12-22T05:45:14;5.70;66.90
11597;DHT22;5854;48.072;16.286;2023-12-22T05:47:43;5.80;79.20
11597;DHT22;5854;48.072;16.286;2023-12-22T05:50:10;5.90;82.30
11597;DHT22;5854;48.072;16.286;2023-12-22T05:52:37;5.70;66.90
11597;DHT22;5854;48.072;16.286;2023-12-22T05:55:05;5.80;82.90
11597;DHT22;5854;48.072;16.286;2023-12-22T05:57:34;5.60;70.90
11597;DHT22;5854;48.072;16.286;2023-12-22T06:00:01;5.60;78.60
11597;DHT22;5854;48.072;16.286;2023-12-22T06:02:30;5.60;76.70
11597;DHT22;5854;48.072;16.286;2023-12-22T06:04:59;5.70;84.40
11597;DHT22;5854;48.072;16.286;2023-12-22T06:07:27;5.60;75.20
11597;DHT22;5854;48.072;16.286;2023-12-22T06:09:54;5.60;72.80
11597;DHT22;5854;48.072;16.286;2023-12-22T06:12:21;5.60;78.80
11597;DHT22;5854;48.072;16.286;2023-12-22T06:14:48;5.60;82.50
11597;DHT22;5854;48.072;16.286;2023-12-22T06:17:15;5.60;77.10
11597;DHT22;5854;48.072;16.286;2023-12-22T06:19:43;5.40;74.50
11597;DHT22;5854;48.072;16.286;2023-12-22T06:22:11;5.50;78.80
11597;DHT22;5854;48.072;16.286;2023-12-22T06:24:39;5.60;82.90
11597;DHT22;5854;48.072;16.286;2023-12-22T06:27:06;5.50;83.00
11597;DHT22;5854;48.072;16.286;2023-12-22T06:29:33;5.40;78.00
11597;DHT22;5854;48.072;16.286;2023-12-22T06:32:00;5.30;79.60
11597;DHT22;5854;48.072;16.286;2023-12-22T06:34:28;5.30;82.30
11597;DHT22;5854;48.072;16.286;2023-12-22T06:36:55;5.20;75.70
11597;DHT22;5854;48.072;16.286;2023-12-22T06:39:24;5.20;86.60
11597;DHT22;5854;48.072;16.286;2023-12-22T06:41:51;5.30;81.10
11597;DHT22;5854;48.072;16.286;2023-12-22T06:44:18;5.30;79.30
11597;DHT22;5854;48.072;16.286;2023-12-22T06:46:45;5.50;78.00
11597;DHT22;5854;48.072;16.286;2023-12-22T06:49:13;5.30;74.60
11597;DHT22;5854;48.072;16.286;2023-12-22T06:51:40;5.40;81.20
11597;DHT22;5854;48.072;16.286;2023-12-22T06:54:07;5.40;84.30
11597;DHT22;5854;48.072;16.286;2023-12-22T06:56:36;5.20;73.20
11597;DHT22;5854;48.072;16.286;2023-12-22T06:59:06;5.20;77.50
11597;DHT22;5854;48.072;16.286;2023-12-22T07:01:34;5.30;82.30
11597;DHT22;5854;48.072;16.286;2023-12-22T07:04:03;5.20;76.50
11597;DHT22;5854;48.072;16.286;2023-12-22T07:06:32;5.30;81.30
11597;DHT22;5854;48.072;16.286;2023-12-22T07:09:27;5.30;78.90
11597;DHT22;5854;48.072;16.286;2023-12-22T07:11:56;5.30;72.90
11597;DHT22;5854;48.072;16.286;2023-12-22T07:14:24;5.20;71.10
11597;DHT22;5854;48.072;16.286;2023-12-22T07:16:51;5.30;80.90
11597;DHT22;5854;48.072;16.286;2023-12-22T07:19:19;5.40;81.80
11597;DHT22;5854;48.072;16.286;2023-12-22T07:21:46;5.30;74.40
11597;DHT22;5854;48.072;16.286;2023-12-22T07:24:13;5.20;70.90
11597;DHT22;5854;48.072;16.286;2023-12-22T07:26:41;5.30;77.10
11597;DHT22;5854;48.072;16.286;2023-12-22T07:29:11;5.30;72.20
11597;DHT22;5854;48.072;16.286;2023-12-22T07:31:38;5.30;78.50
11597;DHT22;5854;48.072;16.286;2023-12-22T07:34:05;5.20;71.10
11597;DHT22;5854;48.072;16.286;2023-12-22T07:36:33;5.30;76.50
11597;DHT22;5854;48.072;16.286;2023-12-22T07:39:00;5.20;70.30
11597;DHT22;5854;48.072;16.286;2023-12-22T07:41:27;5.30;76.60
11597;DHT22;5854;48.072;16.286;2023-12-22T07:43:54;5.30;74.70
11597;DHT22;5854;48.072;16.286;2023-12-22T07:46:23;5.40;75.30
11597;DHT22;5854;48.072;16.286;2023-12-22T07:48:50;5.40;75.10
11597;DHT22;5854;48.072;16.286;2023-12-22T07:51:17;5.40;74.20
11597;DHT22;5854;48.072;16.286;2023-12-22T07:53:44;5.40;70.10
11597;DHT22;5854;48.072;16.286;2023-12-22T07:56:12;5.40;67.50
11597;DHT22;5854;48.072;16.286;2023-12-22T07:58:39;5.50;79.00
11597;DHT22;5854;48.072;16.286;2023-12-22T08:01:06;5.50;76.00
11597;DHT22;5854;48.072;16.286;2023-12-22T08:03:35;5.50;72.60
11597;DHT22;5854;48.072;16.286;2023-12-22T08:06:04;5.60;77.50
11597;DHT22;5854;48.072;16.286;2023-12-22T08:08:31;5.60;73.70
11597;DHT22;5854;48.072;16.286;2023-12-22T08:10:59;5.60;76.50
11597;DHT22;5854;48.072;16.286;2023-12-22T08:13:26;5.60;78.10
11597;DHT22;5854;48.072;16.286;2023-12-22T08:15:53;5.60;76.10
11597;DHT22;5854;48.072;16.286;2023-12-22T08:18:20;5.50;77.90
11597;DHT22;5854;48.072;16.286;2023-12-22T08:20:49;5.70;72.80
11597;DHT22;5854;48.072;16.286;2023-12-22T08:23:17;5.60;63.60
11597;DHT22;5854;48.072;16.286;2023-12-22T08:25:44;5.60;65.20
11597;DHT22;5854;48.072;16.286;2023-12-22T08:28:11;5.60;66.70
11597;DHT22;5854;48.072;16.286;2023-12-22T08:30:39;5.60;65.20
11597;DHT22;5854;48.072;16.286;2023-12-22T08:33:06;5.70;72.00
11597;DHT22;5854;48.072;16.286;2023-12-22T08:35:33;5.70;66.70
11597;DHT22;5854;48.072;16.286;2023-12-22T08:38:02;5.70;73.10
11597;DHT22;5854;48.072;16.286;2023-12-22T08:40:30;5.70;72.30
11597;DHT22;5854;48.072;16.286;2023-12-22T08:42:57;5.70;71.90
11597;DHT22;5854;48.072;16.286;2023-12-22T08:45:26;5.70;65.20
11597;DHT22;5854;48.072;16.286;2023-12-22T08:47:54;5.80;77.10
11597;DHT22;5854;48.072;16.286;2023-12-22T08:50:22;5.70;75.80
11597;DHT22;5854;48.072;16.286;2023-12-22T08:52:49;5.80;68.30
11597;DHT22;5854;48.072;16.286;2023-12-22T08:55:18;6.00;74.90
11597;DHT22;5854;48.072;16.286;2023-12-22T08:57:45;6.00;70.80
11597;DHT22;5854;48.072;16.286;2023-12-22T09:00:13;6.10;74.70
11597;DHT22;5854;48.072;16.286;2023-12-22T09:02:41;6.00;72.40
11597;DHT22;5854;48.072;16.286;2023-12-22T09:05:08;6.10;68.40
11597;DHT22;5854;48.072;16.286;2023-12-22T09:07:36;6.10;73.60
11597;DHT22;5854;48.072;16.286;2023-12-22T09:10:04;6.10;73.90
11597;DHT22;5854;48.072;16.286;2023-12-22T09:12:32;6.10;63.60
11597;DHT22;5854;48.072;16.286;2023-12-22T09:15:00;6.10;62.90
11597;DHT22;5854;48.072;16.286;2023-12-22T09:17:27;6.20;68.70
11597;DHT22;5854;48.072;16.286;2023-12-22T09:19:55;6.20;70.30
11597;DHT22;5854;48.072;16.286;2023-12-22T09:22:24;6.20;71.70
11597;DHT22;5854;48.072;16.286;2023-12-22T09:24:53;6.20;72.00
11597;DHT22;5854;48.072;16.286;2023-12-22T09:27:21;6.30;69.20
11597;DHT22;5854;48.072;16.286;2023-12-22T09:29:49;6.30;66.70
11597;DHT22;5854;48.072;16.286;2023-12-22T09:32:17;6.20;64.00
11597;DHT22;5854;48.072;16.286;2023-12-22T09:34:44;6.10;72.00
11597;DHT22;5854;48.072;16.286;2023-12-22T09:37:11;6.10;66.80
11597;DHT22;5854;48.072;16.286;2023-12-22T09:39:38;6.00;63.00
11597;DHT22;5854;48.072;16.286;2023-12-22T09:42:06;6.10;67.10
11597;DHT22;5854;48.072;16.286;2023-12-22T09:44:34;6.20;69.80
11597;DHT22;5854;48.072;16.286;2023-12-22T09:47:05;6.30;61.90
11597;DHT22;5854;48.072;16.286;2023-12-22T09:49:34;6.30;71.00
11597;DHT22;5854;48.072;16.286;2023-12-22T09:52:02;6.30;63.80
11597;DHT22;5854;48.072;16.286;2023-12-22T09:54:31;6.30;66.10
11597;DHT22;5854;48.072;16.286;2023-12-22T09:56:59;6.30;71.00
11597;DHT22;5854;48.072;16.286;2023-12-22T09:59:28;6.30;67.70
11597;DHT22;5854;48.072;16.286;2023-12-22T10:01:55;6.20;67.40
11597;DHT22;5854;48.072;16.286;2023-12-22T10:04:24;6.20;65.10
11597;DHT22;5854;48.072;16.286;2023-12-22T10:06:53;6.20;70.30
11597;DHT22;5854;48.072;16.286;2023-12-22T10:09:35;6.40;71.30
11597;DHT22;5854;48.072;16.286;2023-12-22T10:12:04;6.60;67.00
11597;DHT22;5854;48.072;16.286;2023-12-22T10:14:33;6.50;71.30
11597;DHT22;5854;48.072;16.286;2023-12-22T10:17:03;6.40;66.50
11597;DHT22;5854;48.072;16.286;2023-12-22T10:19:32;6.30;67.90
11597;DHT22;5854;48.072;16.286;2023-12-22T10:21:59;6.20;59.70
11597;DHT22;5854;48.072;16.286;2023-12-22T10:24:40;6.20;69.80
11597;DHT22;5854;48.072;16.286;2023-12-22T10:27:09;6.20;70.60
11597;DHT22;5854;48.072;16.286;2023-12-22T10:29:37;6.20;67.70
11597;DHT22;5854;48.072;16.286;2023-12-22T10:32:06;6.20;75.70
11597;DHT22;5854;48.072;16.286;2023-12-22T10:34:35;6.20;60.30
11597;DHT22;5854;48.072;16.286;2023-12-22T10:37:03;6.20;73.50
11597;DHT22;5854;48.072;16.286;2023-12-22T10:39:32;6.10;67.30
11597;DHT22;5854;48.072;16.286;2023-12-22T10:41:59;6.10;64.90
11597;DHT22;5854;48.072;16.286;2023-12-22T10:44:27;6.20;66.40
11597;DHT22;5854;48.072;16.286;2023-12-22T10:46:56;6.30;66.30
11597;DHT22;5854;48.072;16.286;2023-12-22T10:49:24;6.40;70.50
11597;DHT22;5854;48.072;16.286;2023-12-22T10:51:53;6.30;65.70
11597;DHT22;5854;48.072;16.286;2023-12-22T10:54:20;6.30;72.60
11597;DHT22;5854;48.072;16.286;2023-12-22T10:56:47;6.30;69.00
11597;DHT22;5854;48.072;16.286;2023-12-22T10:59:17;6.30;69.40
11597;DHT22;5854;48.072;16.286;2023-12-22T11:01:46;6.20;68.10
11597;DHT22;5854;48.072;16.286;2023-12-22T11:04:20;6.10;70.00
11597;DHT22;5854;48.072;16.286;2023-12-22T11:06:49;6.10;68.60
11597;DHT22;5854;48.072;16.286;2023-12-22T11:09:21;6.10;69.80
11597;DHT22;5854;48.072;16.286;2023-12-22T11:11:51;6.10;68.60
11597;DHT22;5854;48.072;16.286;2023-12-22T11:14:19;6.20;68.70
11597;DHT22;5854;48.072;16.286;2023-12-22T11:16:47;6.30;72.30
11597;DHT22;5854;48.072;16.286;2023-12-22T11:19:15;6.30;73.10
11597;DHT22;5854;48.072;16.286;2023-12-22T11:21:43;6.30;64.70
11597;DHT22;5854;48.072;16.286;2023-12-22T11:24:13;6.40;70.90
11597;DHT22;5854;48.072;16.286;2023-12-22T11:26:42;6.20;72.90
11597;DHT22;5854;48.072;16.286;2023-12-22T11:29:10;6.00;73.10
11597;DHT22;5854;48.072;16.286;2023-12-22T11:31:37;5.80;74.60
11597;DHT22;5854;48.072;16.286;2023-12-22T11:34:08;5.60;79.80
11597;DHT22;5854;48.072;16.286;2023-12-22T11:36:35;5.40;81.70
11597;DHT22;5854;48.072;16.286;2023-12-22T11:39:05;5.10;80.20
11597;DHT22;5854;48.072;16.286;2023-12-22T11:41:35;5.00;85.90
11597;DHT22;5854;48.072;16.286;2023-12-22T11:44:04;4.60;85.20
11597;DHT22;5854;48.072;16.286;2023-12-22T11:46:32;4.60;90.90
11597;DHT22;5854;48.072;16.286;2023-12-22T11:49:00;4.50;91.60
11597;DHT22;5854;48.072;16.286;2023-12-22T11:51:31;4.40;91.90
11597;DHT22;5854;48.072;16.286;2023-12-22T11:54:00;4.50;91.30
11597;DHT22;5854;48.072;16.286;2023-12-22T11:56:29;4.70;90.00
11597;DHT22;5854;48.072;16.286;2023-12-22T11:58:58;4.90;93.50
11597;DHT22;5854;48.072;16.286;2023-12-22T12:01:27;4.90;84.20
11597;DHT22;5854;48.072;16.286;2023-12-22T12:03:58;4.80;80.70
11597;DHT22;5854;48.072;16.286;2023-12-22T12:06:33;4.90;83.40
11597;DHT22;5854;48.072;16.286;2023-12-22T12:09:05;5.00;88.40
11597;DHT22;5854;48.072;16.286;2023-12-22T12:12:09;5.10;83.90
11597;DHT22;5854;48.072;16.286;2023-12-22T12:14:43;5.20;80.40
11597;DHT22;5854;48.072;16.286;2023-12-22T12:17:11;5.30;83.10
11597;DHT22;5854;48.072;16.286;2023-12-22T12:19:39;5.30;79.00
11597;DHT22;5854;48.072;16.286;2023-12-22T12:22:07;5.50;84.80
11597;DHT22;5854;48.072;16.286;2023-12-22T12:24:36;5.30;75.20
11597;DHT22;5854;48.072;16.286;2023-12-22T12:27:04;5.40;75.10
11597;DHT22;5854;48.072;16.286;2023-12-22T12:29:32;5.40;77.30
11597;DHT22;5854;48.072;16.286;2023-12-22T12:32:04;5.50;75.60
11597;DHT22;5854;48.072;16.286;2023-12-22T12:34:32;5.50;74.10
11597;DHT22;5854;48.072;16.286;2023-12-22T12:37:00;5.60;79.10
11597;DHT22;5854;48.072;16.286;2023-12-22T12:39:30;5.50;72.70
11597;DHT22;5854;48.072;16.286;2023-12-22T12:42:00;5.50;71.60
11597;DHT22;5854;48.072;16.286;2023-12-22T12:44:29;5.50;74.10
11597;DHT22;5854;48.072;16.286;2023-12-22T12:46:58;5.60;83.20
11597;DHT22;5854;48.072;16.286;2023-12-22T12:49:27;5.60;73.30
11597;DHT22;5854;48.072;16.286;2023-12-22T12:51:56;5.60;70.30
11597;DHT22;5854;48.072;16.286;2023-12-22T12:54:26;5.50;69.50
11597;DHT22;5854;48.072;16.286;2023-12-22T12:56:53;5.50;69.40
11597;DHT22;5854;48.072;16.286;2023-12-22T12:59:20;5.50;70.70
11597;DHT22;5854;48.072;16.286;2023-12-22T13:01:48;5.50;73.10
11597;DHT22;5854;48.072;16.286;2023-12-22T13:04:16;5.50;79.20
11597;DHT22;5854;48.072;16.286;2023-12-22T13:06:45;5.50;75.60
11597;DHT22;5854;48.072;16.286;2023-12-22T13:09:13;5.50;76.30
11597;DHT22;5854;48.072;16.286;2023-12-22T13:11:41;5.40;73.20
11597;DHT22;5854;48.072;16.286;2023-12-22T13:14:09;5.50;78.20
11597;DHT22;5854;48.072;16.286;2023-12-22T13:16:37;5.50;71.70
11597;DHT22;5854;48.072;16.286;2023-12-22T13:19:05;5.50;76.10
11597;DHT22;5854;48.072;16.286;2023-12-22T13:21:32;5.40;75.10
11597;DHT22;5854;48.072;16.286;2023-12-22T13:24:10;5.60;76.70
11597;DHT22;5854;48.072;16.286;2023-12-22T13:26:39;5.50;72.10
11597;DHT22;5854;48.072;16.286;2023-12-22T13:29:06;5.60;76.50
11597;DHT22;5854;48.072;16.286;2023-12-22T13:31:37;5.70;74.10
11597;DHT22;5854;48.072;16.286;2023-12-22T13:34:09;5.60;75.00
11597;DHT22;5854;48.072;16.286;2023-12-22T13:36:36;5.60;76.20
11597;DHT22;5854;48.072;16.286;2023-12-22T13:39:05;5.60;80.30
11597;DHT22;5854;48.072;16.286;2023-12-22T13:41:35;5.50;72.40
11597;DHT22;5854;48.072;16.286;2023-12-22T13:44:04;5.50;71.30
11597;DHT22;5854;48.072;16.286;2023-12-22T13:46:32;5.50;69.10
11597;DHT22;5854;48.072;16.286;2023-12-22T13:49:01;5.80;80.30
11597;DHT22;5854;48.072;16.286;2023-12-22T13:51:39;5.80;62.40
11597;DHT22;5854;48.072;16.286;2023-12-22T13:54:07;5.80;64.50
11597;DHT22;5854;48.072;16.286;2023-12-22T13:56:36;5.80;61.20
11597;DHT22;5854;48.072;16.286;2023-12-22T13:59:06;5.80;62.50
11597;DHT22;5854;48.072;16.286;2023-12-22T14:01:33;5.90;56.90
11597;DHT22;5854;48.072;16.286;2023-12-22T14:04:01;6.00;54.40
11597;DHT22;5854;48.072;16.286;2023-12-22T14:06:29;6.10;52.00
11597;DHT22;5854;48.072;16.286;2023-12-22T14:08:57;6.20;52.40
11597;DHT22;5854;48.072;16.286;2023-12-22T14:11:24;6.20;49.00
11597;DHT22;5854;48.072;16.286;2023-12-22T14:13:53;6.20;46.60
11597;DHT22;5854;48.072;16.286;2023-12-22T14:16:20;6.20;49.60
11597;DHT22;5854;48.072;16.286;2023-12-22T14:18:47;6.10;49.30
11597;DHT22;5854;48.072;16.286;2023-12-22T14:21:17;6.10;48.90
11597;DHT22;5854;48.072;16.286;2023-12-22T14:23:46;6.40;55.20
11597;DHT22;5854;48.072;16.286;2023-12-22T14:26:13;6.40;50.30
11597;DHT22;5854;48.072;16.286;2023-12-22T14:28:42;6.20;49.70
11597;DHT22;5854;48.072;16.286;2023-12-22T14:31:14;5.90;53.30
11597;DHT22;5854;48.072;16.286;2023-12-22T14:33:41;5.70;54.40
11597;DHT22;5854;48.072;16.286;2023-12-22T14:36:08;5.50;56.40
11597;DHT22;5854;48.072;16.286;2023-12-22T14:38:35;5.50;57.10
11597;DHT22;5854;48.072;16.286;2023-12-22T14:41:03;5.40;59.00
11597;DHT22;5854;48.072;16.286;2023-12-22T14:43:30;5.30;61.50
11597;DHT22;5854;48.072;16.286;2023-12-22T14:45:57;5.30;63.70
11597;DHT22;5854;48.072;16.286;2023-12-22T14:48:26;5.00;64.40
11597;DHT22;5854;48.072;16.286;2023-12-22T14:50:53;4.90;65.80
11597;DHT22;5854;48.072;16.286;2023-12-22T14:53:21;4.80;66.10
11597;DHT22;5854;48.072;16.286;2023-12-22T14:55:48;4.80;66.60
11597;DHT22;5854;48.072;16.286;2023-12-22T14:58:15;4.80;69.40
11597;DHT22;5854;48.072;16.286;2023-12-22T15:00:42;4.80;65.50
11597;DHT22;5854;48.072;16.286;2023-12-22T15:03:10;4.80;66.40
11597;DHT22;5854;48.072;16.286;2023-12-22T15:05:38;4.80;68.00
11597;DHT22;5854;48.072;16.286;2023-12-22T15:08:06;4.90;69.20
11597;DHT22;5854;48.072;16.286;2023-12-22T15:10:33;4.80;69.40
11597;DHT22;5854;48.072;16.286;2023-12-22T15:13:00;4.60;71.90
11597;DHT22;5854;48.072;16.286;2023-12-22T15:15:27;4.60;72.00
11597;DHT22;5854;48.072;16.286;2023-12-22T15:17:55;4.60;72.40
11597;DHT22;5854;48.072;16.286;2023-12-22T15:20:22;4.70;73.50
11597;DHT22;5854;48.072;16.286;2023-12-22T15:22:51;4.50;73.70
11597;DHT22;5854;48.072;16.286;2023-12-22T15:25:18;4.60;74.10
11597;DHT22;5854;48.072;16.286;2023-12-22T15:27:47;4.50;76.40
11597;DHT22;5854;48.072;16.286;2023-12-22T15:30:14;4.40;75.30
11597;DHT22;5854;48.072;16.286;2023-12-22T15:32:41;4.40;75.10
11597;DHT22;5854;48.072;16.286;2023-12-22T15:35:09;4.30;76.80
11597;DHT22;5854;48.072;16.286;2023-12-22T15:37:37;4.30;74.90
11597;DHT22;5854;48.072;16.286;2023-12-22T15:40:08;4.20;78.90
11597;DHT22;5854;48.072;16.286;2023-12-22T15:42:36;4.30;75.30
11597;DHT22;5854;48.072;16.286;2023-12-22T15:45:04;4.30;76.40
11597;DHT22;5854;48.072;16.286;2023-12-22T15:47:32;4.30;74.40
11597;DHT22;5854;48.072;16.286;2023-12-22T15:50:00;4.30;75.90